Time;durP1;ratioP1;P1;durP2;ratioP2;P2;SDS_P1;SDS_P2;PMS_P1;PMS_P2;Temp;Humidity;BMP_temperature;BMP_pressure;BME280_temperature;BME280_humidity;BME280_pressure;Samples;Min_cycle;Max_cycle;Signal;HPM_P1;HPM_P2
2022/09/24 00:01:43;;;;;;;;;;;;;;;6.58;61.37;95161.91;4985116;28;25062;-78
2022/09/24 00:04:10;;;;;;;;;;;;;;;6.49;60.88;95152.97;4997216;28;19918;-78
2022/09/24 00:06:37;;;;;;;;;;;;;;;6.46;61.67;95154.88;5001116;28;19933;-78
2022/09/24 00:09:03;;;;;;;;;;;;;;;6.43;61.60;95153.31;4985785;28;20023;-78
2022/09/24 00:11:28;;;;;;;;;;;;;;;6.47;61.54;95151.41;4996563;28;19926;-78
2022/09/24 00:13:54;;;;;;;;;;;;;;;6.49;62.04;95152.13;5005223;28;20037;-78
2022/09/24 00:16:20;;;;;;;;;;;;;;;6.31;63.11;95153.25;5005303;28;19918;-78
2022/09/24 00:18:45;;;;;;;;;;;;;;;6.31;62.33;95153.25;5003703;28;20479;-77
2022/09/24 00:21:11;;;;;;;;;;;;;;;6.40;61.73;95155.25;5004652;28;25068;-78
2022/09/24 00:23:37;;;;;;;;;;;;;;;6.44;61.50;95147.25;4976877;28;20054;-78
2022/09/24 00:28:48;;;;;;;;;;;;;;;6.42;62.07;95156.00;4991267;28;20076;-78
2022/09/24 00:31:13;;;;;;;5.90;3.70;;;;;;;6.34;62.42;95145.31;4988736;28;20166;-78
2022/09/24 00:33:39;;;;;;;;;;;;;;;6.36;62.55;95153.81;4973968;28;19945;-78
2022/09/24 00:36:04;;;;;;;5.50;4.00;;;;;;;6.35;62.37;95154.72;4993251;28;20426;-78
2022/09/24 00:38:32;;;;;;;;;;;;;;;6.20;62.88;95157.31;4993630;28;20054;-78
2022/09/24 00:40:58;;;;;;;;;;;;;;;6.23;62.66;95159.69;4978357;28;25074;-78
2022/09/24 00:43:35;;;;;;;7.40;4.60;;;;;;;6.02;63.17;95142.94;4976976;28;20053;-78
2022/09/24 00:46:18;;;;;;;;;;;;;;;6.08;62.94;95158.03;4973311;28;20331;-78
2022/09/24 00:48:43;;;;;;;;;;;;;;;5.94;63.60;95155.47;4967914;28;24099;-78
2022/09/24 00:51:09;;;;;;;;;;;;;;;5.93;63.46;95148.59;4986327;28;20428;-77
2022/09/24 00:53:34;;;;;;;;;;;;;;;5.92;63.96;95152.09;4970417;28;20079;-77
2022/09/24 00:56:00;;;;;;;;;;;;;;;5.82;63.57;95152.66;4982533;28;19922;-78
2022/09/24 00:58:25;;;;;;;5.30;3.20;;;;;;;5.77;64.39;95154.66;4991783;28;20515;-77
2022/09/24 01:00:52;;;;;;;;;;;;;;;5.57;64.22;95132.63;4975773;28;19926;-78
2022/09/24 01:03:21;;;;;;;;;;;;;;;5.57;64.77;95147.25;4991697;28;19917;-77
2022/09/24 01:05:47;;;;;;;;;;;;;;;5.55;64.81;95143.94;4975653;28;19981;-78
2022/09/24 01:08:12;;;;;;;;;;;;;;;5.71;64.60;95144.72;4989032;28;24084;-78
2022/09/24 01:10:47;;;;;;;;;;;;;;;5.71;64.50;95138.72;4978436;28;19929;-78
2022/09/24 01:13:32;;;;;;;;;;;;;;;5.77;64.08;95138.38;4992188;28;19952;-77
2022/09/24 01:15:59;;;;;;;;;;;;;;;5.76;64.01;95136.69;4972446;28;24083;-78
2022/09/24 01:18:30;;;;;;;;;;;;;;;5.71;64.30;95139.56;4991494;28;19914;-77
2022/09/24 01:20:55;;;;;;;;;;;;;;;5.76;64.16;95131.53;4993587;28;25148;-78
2022/09/24 01:23:33;;;;;;;;;;;;;;;5.83;63.72;95135.44;4990873;28;20287;-78
2022/09/24 01:26:07;;;;;;;;;;;;;;;5.78;63.96;95134.88;4992720;28;19925;-78
2022/09/24 01:28:51;;;;;;;;;;;;;;;5.71;64.51;95131.84;4992238;28;20013;-78
2022/09/24 01:31:37;;;;;;;;;;;;;;;5.79;64.27;95131.34;4976275;28;20020;-78
2022/09/24 01:34:06;;;;;;;;;;;;;;;5.80;64.87;95135.63;4986974;28;19925;-78
2022/09/24 01:36:35;;;;;;;;;;;;;;;5.76;64.58;95131.53;4987493;28;20454;-78
2022/09/24 01:39:00;;;;;;;;;;;;;;;5.79;64.17;95132.22;4973957;28;19921;-78
2022/09/24 01:41:25;;;;;;;;;;;;;;;5.67;64.50;95137.25;4988499;28;19922;-78
2022/09/24 01:43:50;;;;;;;;;;;;;;;5.66;64.59;95139.00;4956397;28;20412;-78
2022/09/24 01:46:18;;;;;;;;;;;;;;;5.76;64.06;95132.38;4990720;28;19922;-78
2022/09/24 01:48:44;;;;;;;;;;;;;;;5.76;64.42;95134.94;4993122;28;19913;-78
2022/09/24 01:51:13;;;;;;;;;;;;;;;5.75;64.10;95141.03;4992103;28;19929;-78
2022/09/24 01:53:41;;;;;;;;;;;;;;;5.81;64.25;95134.69;4983050;28;19928;-77
2022/09/24 01:56:09;;;;;;;;;;;;;;;5.89;64.59;95140.22;4989568;28;24149;-78
2022/09/24 01:58:45;;;;;;;;;;;;;;;5.81;64.13;95140.66;4991723;28;20004;-78
2022/09/24 02:01:12;;;;;;;;;;;;;;;5.79;64.10;95147.69;4991977;28;20384;-78
2022/09/24 02:03:42;;;;;;;;;;;;;;;5.87;63.82;95136.91;4973522;28;20388;-77
2022/09/24 02:06:36;;;;;;;;;;;;;;;5.83;63.85;95143.16;4987850;28;19973;-78
2022/09/24 02:09:02;;;;;;;;;;;;;;;5.85;63.64;95146.50;4968593;28;20364;-78
2022/09/24 02:11:27;;;;;;;;;;;;;;;5.69;64.24;95150.88;4991584;28;19992;-78
2022/09/24 02:13:55;;;;;;;;;;;;;;;5.70;64.51;95152.53;4990462;28;20331;-78
2022/09/24 02:16:22;;;;;;;;;;;;;;;5.84;63.99;95155.13;4991609;28;20304;-77
2022/09/24 02:18:49;;;;;;;;;;;;;;;5.74;64.38;95165.16;4985776;28;20388;-77
2022/09/24 02:21:15;;;;;;;;;;;;;;;5.57;65.21;95163.56;4987256;28;19922;-78
2022/09/24 02:23:44;;;;;;;;;;;;;;;5.66;65.15;95172.50;4987954;28;20384;-78
2022/09/24 02:26:10;;;;;;;;;;;;;;;5.73;65.16;95171.22;4988119;28;19929;-78
2022/09/24 02:28:35;;;;;;;;;;;;;;;5.82;65.03;95181.03;4956633;28;20382;-78
2022/09/24 02:31:08;;;;;;;;;;;;;;;5.72;65.44;95182.47;4991137;28;20346;-78
2022/09/24 02:36:18;;;;;;;;;;;;;;;5.55;65.56;95182.59;4986108;28;19928;-78
2022/09/24 02:38:45;;;;;;;;;;;;;;;5.40;66.17;95186.88;4973002;28;19918;-78
2022/09/24 02:41:11;;;;;;;;;;;;;;;5.49;66.09;95188.09;4991587;28;20004;-78
2022/09/24 02:43:37;;;;;;;;;;;;;;;5.42;65.96;95194.53;4992403;28;19914;-78
2022/09/24 02:46:02;;;;;;;;;;;;;;;5.47;66.01;95185.63;4990423;28;19921;-77
2022/09/24 02:48:27;;;;;;;;;;;;;;;5.40;66.03;95193.78;4989210;28;19921;-78
2022/09/24 02:50:52;;;;;;;;;;;;;;;5.45;65.67;95197.75;4989716;28;19922;-78
2022/09/24 02:53:18;;;;;;;;;;;;;;;5.43;65.46;95194.41;4990539;28;19949;-78
2022/09/24 02:55:43;;;;;;;;;;;;;;;5.47;65.38;95202.81;4988154;28;20276;-78
2022/09/24 02:58:08;;;;;;;;;;;;;;;5.29;65.60;95204.66;4990738;28;20367;-78
2022/09/24 03:00:34;;;;;;;;;;;;;;;5.27;65.86;95206.53;4990527;28;25052;-78
2022/09/24 03:02:59;;;;;;;;;;;;;;;5.31;65.36;95200.28;4966775;28;19992;-78
2022/09/24 03:05:24;;;;;;;;;;;;;;;5.37;64.92;95202.50;4982754;28;19925;-78
2022/09/24 03:07:50;;;;;;;;;;;;;;;5.35;64.92;95200.03;4990751;28;19914;-78
2022/09/24 03:10:15;;;;;;;;;;;;;;;5.40;64.56;95201.50;4977815;28;20383;-78
2022/09/24 03:12:42;;;;;;;;;;;;;;;5.39;64.52;95198.09;4972080;28;19952;-78
2022/09/24 03:15:08;;;;;;;;;;;;;;;5.37;64.23;95192.19;4971191;28;19914;-78
2022/09/24 03:17:33;;;;;;;;;;;;;;;5.30;64.59;95189.16;4985985;28;24067;-78
2022/09/24 03:19:58;;;;;;;;;;;;;;;5.18;65.08;95194.97;4986152;28;20398;-78
2022/09/24 03:22:24;;;;;;;;;;;;;;;5.25;64.75;95191.16;4969890;28;19936;-78
2022/09/24 03:24:49;;;;;;;;;;;;;;;5.26;64.89;95195.38;4986725;28;19918;-78
2022/09/24 03:27:15;;;;;;;;;;;;;;;5.18;65.40;95192.38;4971894;28;19925;-78
2022/09/24 03:32:24;;;;;;;;;;;;;;;5.28;65.59;95197.88;4973670;28;20050;-77
2022/09/24 03:34:49;;;;;;;;;;;;;;;5.22;65.88;95193.06;4973518;28;20391;-79
2022/09/24 03:37:14;;;;;;;;;;;;;;;5.20;66.04;95206.00;4971484;28;19937;-78
2022/09/24 03:39:40;;;;;;;;;;;;;;;5.25;65.92;95209.16;4969159;28;25058;-79
2022/09/24 03:42:05;;;;;;;;;;;;;;;5.36;65.67;95206.81;4970977;28;20080;-78
2022/09/24 03:44:30;;;;;;;;;;;;;;;5.30;66.50;95226.97;4969384;28;19914;-79
2022/09/24 03:46:56;;;;;;;;;;;;;;;5.26;66.43;95213.41;4953361;28;19922;-79
2022/09/24 03:49:22;;;;;;;;;;;;;;;5.28;66.27;95216.72;4970338;28;20055;-79
2022/09/24 03:51:47;;;;;;;;;;;;;;;5.28;65.87;95218.47;4969448;28;19922;-79
2022/09/24 03:54:13;;;;;;;;;;;;;;;5.20;66.14;95221.47;4972519;28;19925;-79
2022/09/24 03:56:38;;;;;;;;;;;;;;;5.26;65.84;95223.69;4985001;28;25155;-79
2022/09/24 03:59:03;;;;;;;;;;;;;;;5.27;65.89;95220.22;4972740;28;19944;-79
2022/09/24 04:01:32;;;;;;;;;;;;;;;5.15;66.20;95223.47;4974483;28;19949;-78
2022/09/24 04:03:58;;;;;;;;;;;;;;;5.12;66.42;95218.50;4974290;28;19914;-78
2022/09/24 04:06:25;;;;;;;;;;;;;;;5.11;66.04;95219.41;4988899;28;20068;-78
2022/09/24 04:08:51;;;;;;;;;;;;;;;5.13;65.51;95225.31;4988652;28;19925;-79
2022/09/24 04:11:16;;;;;;;;;;;;;;;5.05;66.33;95222.31;4988729;28;19922;-79
2022/09/24 04:13:41;;;;;;;;;;;;;;;5.06;65.79;95213.69;4973682;28;19918;-78
2022/09/24 04:16:06;;;;;;;;;;;;;;;5.02;66.33;95223.31;4973814;28;19922;-78
2022/09/24 04:18:32;;;;;;;;;;;;;;;4.96;66.59;95227.97;4973872;28;20368;-79
2022/09/24 04:20:58;;;;;;;;;;;;;;;4.92;66.60;95228.13;4988178;28;25106;-78
2022/09/24 04:23:23;;;;;;;;;;;;;;;4.99;66.15;95230.41;4989313;28;24056;-79
2022/09/24 04:25:49;;;;;;;;;;;;;;;4.99;66.34;95235.53;4973659;28;20386;-78
2022/09/24 04:28:14;;;;;;;;;;;;;;;4.92;66.12;95238.44;4988637;28;20091;-79
2022/09/24 04:30:39;;;;;;;;;;;;;;;4.97;66.21;95234.78;4972112;28;19972;-79
2022/09/24 04:33:05;;;;;;;;;;;;;;;4.96;66.33;95238.25;4985059;28;20025;-79
2022/09/24 04:35:31;;;;;;;;;;;;;;;4.99;66.22;95244.09;4991788;28;20299;-78
2022/09/24 04:37:56;;;;;;;;;;;;;;;4.87;66.44;95240.41;4991403;28;19957;-78
2022/09/24 04:40:21;;;;;;;;;;;;;;;4.88;66.24;95244.66;4973597;28;20402;-79
2022/09/24 04:42:47;;;;;;;;;;;;;;;4.95;65.99;95252.06;4991718;28;19929;-79
2022/09/24 04:45:13;;;;;;;;;;;;;;;4.84;66.24;95255.19;4992072;28;19921;-78
2022/09/24 04:47:41;;;;;;;;;;;;;;;4.76;67.41;95257.34;4966198;28;20453;-75
2022/09/24 04:50:07;;;;;;;;;;;;;;;4.61;68.26;95254.66;4987717;28;19921;-75
2022/09/24 04:52:32;;;;;;;;;;;;;;;4.61;68.25;95259.81;4976385;28;19919;-76
2022/09/24 04:54:58;;;;;;;;;;;;;;;4.60;68.24;95253.03;4975078;28;20410;-76
2022/09/24 04:57:23;;;;;;;;;;;;;;;4.59;68.26;95256.47;4975152;28;19968;-76
2022/09/24 04:59:49;;;;;;;;;;;;;;;4.67;67.72;95245.78;4988642;28;24070;-75
2022/09/24 05:02:14;;;;;;;;;;;;;;;4.66;67.55;95242.41;4960696;28;20059;-77
2022/09/24 05:04:39;;;;;;;;;;;;;;;4.65;68.04;95248.47;4974393;28;24074;-77
2022/09/24 05:07:05;;;;;;;;;;;;;;;4.69;67.88;95244.81;4988616;28;20486;-78
2022/09/24 05:09:33;;;;;;;;;;;;;;;4.76;67.80;95247.06;4956540;28;20403;-76
2022/09/24 05:11:59;;;;;;;;;;;;;;;4.75;67.78;95253.94;4986768;28;19975;-76
2022/09/24 05:14:24;;;;;;;;;;;;;;;4.86;67.11;95256.78;4989088;28;24058;-77
2022/09/24 05:16:49;;;;;;;;;;;;;;;4.90;67.68;95250.56;4971137;28;25050;-76
2022/09/24 05:19:15;;;;;;;;;;;;;;;4.79;68.35;95252.88;4986536;28;20470;-76
2022/09/24 05:21:40;;;;;;;;;;;;;;;4.76;68.76;95255.59;4970338;28;25081;-76
2022/09/24 05:24:05;;;;;;;;;;;;;;;4.74;69.04;95260.03;4984239;28;20476;-76
2022/09/24 05:29:14;;;;;;;;;;;;;;;4.90;69.67;95267.75;4994542;28;20315;-76
2022/09/24 05:31:40;;;;;;;;;;;;;;;5.04;68.83;95261.84;4985819;28;19922;-76
2022/09/24 05:34:05;;;;;;;;;;;;;;;5.16;68.53;95263.78;4986006;28;20094;-76
2022/09/24 05:36:30;;;;;;;;;;;;;;;5.31;68.03;95262.94;4985872;28;19948;-76
2022/09/24 05:38:55;;;;;;;;;;;;;;;5.50;67.41;95261.91;4968916;28;20112;-76
2022/09/24 05:41:21;;;;;;;;;;;;;;;5.64;66.76;95256.00;4970597;28;20062;-76
2022/09/24 05:43:46;;;;;;;;;;;;;;;5.78;66.08;95264.59;4970962;28;20564;-76
2022/09/24 05:46:12;;;;;;;;;;;;;;;5.97;65.30;95263.59;4988282;28;19921;-76
2022/09/24 05:48:37;;;;;;;;;;;;;;;6.00;65.43;95255.69;4988198;28;20412;-76
2022/09/24 05:51:02;;;;;;;;;;;;;;;6.08;65.30;95268.97;4987656;28;19945;-76
2022/09/24 05:53:27;;;;;;;;;;;;;;;6.20;65.45;95270.81;4987161;28;19921;-76
2022/09/24 05:55:53;;;;;;;;;;;;;;;6.36;65.28;95269.94;4987208;28;19996;-76
2022/09/24 05:58:19;;;;;;;;;;;;;;;6.54;64.48;95274.00;4987727;28;19922;-76
2022/09/24 06:00:44;;;;;;;;;;;;;;;6.70;64.42;95274.72;4982862;28;19918;-76
2022/09/24 06:03:10;;;;;;;;;;;;;;;6.90;63.72;95275.28;4985589;28;19925;-76
2022/09/24 06:05:36;;;;;;;;;;;;;;;7.08;62.73;95274.16;4987350;28;19975;-76
2022/09/24 06:08:02;;;;;;;;;;;;;;;7.14;62.93;95283.28;4970467;28;19922;-76
2022/09/24 06:10:27;;;;;;;;;;;;;;;7.31;62.49;95279.66;4982647;28;20008;-76
2022/09/24 06:12:52;;;;;;;;;;;;;;;7.53;62.20;95277.38;4986327;28;19996;-76
2022/09/24 06:15:19;;;;;;;;;;;;;;;7.75;61.10;95284.59;4985987;28;20370;-76
2022/09/24 06:17:45;;;;;;;;;;;;;;;7.90;59.92;95280.19;4985689;28;19926;-76
2022/09/24 06:20:10;;;;;;;;;;;;;;;7.99;59.87;95284.75;4985415;28;19972;-76
2022/09/24 06:22:35;;;;;;;;;;;;;;;8.10;60.69;95284.06;4998270;28;19922;-76
2022/09/24 06:25:00;;;;;;;;;;;;;;;8.29;59.63;95286.25;4987561;28;20383;-76
2022/09/24 06:27:26;;;;;;;;;;;;;;;8.47;59.65;95282.50;4987215;28;19922;-76
2022/09/24 06:29:51;;;;;;;;;;;;;;;8.67;58.39;95277.72;4987260;28;19917;-76
2022/09/24 06:32:18;;;;;;;;;;;;;;;8.84;57.95;95284.34;4986797;28;20407;-76
2022/09/24 06:34:44;;;;;;;;;;;;;;;8.85;57.39;95286.00;4987389;28;19918;-76
2022/09/24 06:37:09;;;;;;;;;;;;;;;9.00;56.89;95284.97;4988279;28;19936;-76
2022/09/24 06:39:34;;;;;;;;;;;;;;;9.15;56.73;95277.88;4982783;28;20794;-76
2022/09/24 06:42:00;;;;;;;;;;;;;;;9.40;56.95;95287.34;4966691;28;20350;-78
2022/09/24 06:44:25;;;;;;;;;;;;;;;9.55;55.80;95291.44;4988114;28;20347;-79
2022/09/24 06:46:51;;;;;;;;;;;;;;;9.54;55.66;95291.56;4970354;28;19922;-76
2022/09/24 06:49:16;;;;;;;;;;;;;;;9.59;55.61;95300.66;4987034;28;19917;-74
2022/09/24 06:51:41;;;;;;;;;;;;;;;9.75;56.13;95287.44;4985871;28;19985;-77
2022/09/24 06:54:07;;;;;;;;;;;;;;;10.00;55.22;95285.63;4983164;28;19918;-75
2022/09/24 06:56:32;;;;;;;;;;;;;;;10.03;54.83;95285.44;4985688;28;19984;-75
2022/09/24 06:58:57;;;;;;;;;;;;;;;10.11;55.00;95287.44;4985450;28;20363;-73
2022/09/24 07:01:22;;;;;;;;;;;;;;;10.31;54.91;95289.44;4967603;28;19921;-75
2022/09/24 07:03:48;;;;;;;;;;;;;;;10.51;54.44;95286.19;4982923;28;19921;-77
2022/09/24 07:06:13;;;;;;;;;;;;;;;10.77;52.62;95280.78;4982317;28;19925;-74
2022/09/24 07:08:38;;;;;;;;;;;;;;;10.69;52.90;95283.97;4987104;28;19953;-76
2022/09/24 07:11:04;;;;;;;;;;;;;;;10.71;52.92;95295.06;4985973;28;20000;-73
2022/09/24 07:13:29;;;;;;;;;;;;;;;10.87;52.20;95292.16;4985645;28;19917;-74
2022/09/24 07:15:54;;;;;;;;;;;;;;;10.86;52.60;95295.66;4986018;28;20348;-75
2022/09/24 07:18:20;;;;;;;;;;;;;;;10.94;52.71;95287.28;4985289;28;19926;-74
2022/09/24 07:20:54;;;;;;;;;;;;;;;10.97;53.58;95284.44;4987497;28;19924;-74
2022/09/24 07:23:20;;;;;;;;;;;;;;;11.10;52.04;95276.53;4981384;28;20288;-74
2022/09/24 07:25:45;;;;;;;;;;;;;;;11.17;52.19;95275.97;4986551;28;19949;-74
2022/09/24 07:28:14;;;;;;;;;;;;;;;11.32;51.35;95273.09;4986060;28;19925;-73
2022/09/24 07:30:40;;;;;;;;;;;;;;;11.51;51.39;95275.91;4986119;28;19972;-73
2022/09/24 07:33:06;;;;;;;;;;;;;;;11.74;50.51;95281.06;4985989;28;20387;-73
2022/09/24 07:35:31;;;;;;;;;;;;;;;11.78;50.44;95274.66;4990305;28;19925;-73
2022/09/24 07:38:03;;;;;;;;;;;;;;;11.89;49.45;95269.44;4974136;28;19937;-74
2022/09/24 07:40:29;;;;;;;;;;;;;;;12.17;48.53;95273.22;4989972;28;19930;-74
2022/09/24 07:42:54;;;;;;;;;;;;;;;12.17;48.73;95269.78;4988025;28;19925;-74
2022/09/24 07:45:20;;;;;;;;;;;;;;;12.31;48.89;95269.47;4991143;28;20376;-74
2022/09/24 07:47:45;;;;;;;;;;;;;;;12.46;48.84;95268.22;4992634;28;20427;-74
2022/09/24 07:50:12;;;;;;;;;;;;;;;12.69;48.42;95263.69;4990092;28;20304;-74
2022/09/24 07:52:37;;;;;;;;;;;;;;;12.81;47.74;95261.81;4987241;28;19917;-74
2022/09/24 07:55:03;;;;;;;;;;;;;;;12.95;47.34;95264.13;4991573;28;19921;-74
2022/09/24 07:57:28;;;;;;;;;;;;;;;13.14;46.45;95265.13;4990043;28;19917;-75
2022/09/24 07:59:53;;;;;;;;;;;;;;;13.27;46.17;95264.94;4989069;28;20334;-74
2022/09/24 08:02:19;;;;;;;;;;;;;;;13.34;46.09;95259.03;4987377;28;19965;-74
2022/09/24 08:04:44;;;;;;;;;;;;;;;13.42;45.74;95266.22;4990170;28;20157;-74
2022/09/24 08:07:10;;;;;;;;;;;;;;;13.62;45.15;95261.84;4973585;28;19985;-74
2022/09/24 08:09:35;;;;;;;;;;;;;;;13.74;44.31;95249.53;4989229;28;20396;-75
2022/09/24 08:12:01;;;;;;;;;;;;;;;13.77;44.32;95263.13;4971909;28;19921;-74
2022/09/24 08:14:26;;;;;;;;;;;;;;;13.83;43.98;95259.16;4990069;28;20392;-75
2022/09/24 08:16:51;;;;;;;;;;;;;;;13.88;44.13;95256.97;4989089;28;19926;-76
2022/09/24 08:19:16;;;;;;;;;;;;;;;13.86;44.23;95262.31;4972825;28;19940;-76
2022/09/24 08:21:42;;;;;;;;;;;;;;;14.03;43.72;95257.38;4989302;28;19926;-75
2022/09/24 08:24:07;;;;;;;;;;;;;;;14.08;43.42;95252.56;4988028;28;19913;-76
2022/09/24 08:26:32;;;;;;;;;;;;;;;14.11;43.42;95251.47;4988888;28;19928;-75
2022/09/24 08:28:58;;;;;;;;;;;;;;;13.93;42.75;95254.78;4990808;28;20304;-75
2022/09/24 08:31:23;;;;;;;;;;;;;;;13.77;44.10;95257.09;4990756;28;19928;-74
2022/09/24 08:33:49;;;;;;;;;;;;;;;13.80;43.89;95254.19;4987279;28;20304;-75
2022/09/24 08:36:14;;;;;;;;;;;;;;;13.95;42.51;95247.59;4973024;28;19917;-74
2022/09/24 08:38:40;;;;;;;;;;;;;;;13.84;42.49;95245.94;4989452;28;19925;-74
2022/09/24 08:41:11;;;;;;;;;;;;;;;13.88;43.94;95245.69;4991071;28;19960;-75
2022/09/24 08:43:55;;;;;;;;;;;;;;;13.99;43.45;95237.72;4987587;28;19928;-75
2022/09/24 08:49:12;;;;;;;;;;;;;;;14.06;43.32;95244.03;4981367;28;19948;-74
2022/09/24 08:51:38;;;;;;;;;;;;;;;14.18;42.81;95250.78;4986959;28;19969;-75
2022/09/24 08:54:12;;;;;;;;;;;;;;;14.42;41.74;95241.66;4986782;28;21021;-74
2022/09/24 08:56:37;;;;;;;;;;;;;;;14.37;41.41;95247.31;4972517;28;20404;-74
2022/09/24 08:59:09;;;;;;;;;;;;;;;14.31;42.17;95242.63;4987903;28;19917;-74
2022/09/24 09:01:34;;;;;;;;;;;;;;;14.26;42.09;95234.38;4986728;28;20042;-74
2022/09/24 09:04:06;;;;;;;;;;;;;;;14.55;41.60;95238.78;4987144;28;20009;-74
2022/09/24 09:06:44;;;;;;;;;;;;;;;14.43;41.66;95235.47;4988333;28;19922;-74
2022/09/24 09:09:16;;;;;;;;;;;;;;;14.43;41.90;95231.09;4990005;28;20008;-75
2022/09/24 09:11:46;;;;;;;;;;;;;;;14.47;41.77;95221.16;4981015;28;19945;-75
2022/09/24 09:14:13;;;;;;;;;;;;;;;14.61;41.02;95227.78;4982031;28;20410;-75
2022/09/24 09:16:38;;;;;;;;;;;;;;;14.63;41.82;95224.06;4984342;28;19953;-75
2022/09/24 09:19:05;;;;;;;;;;;;;;;14.66;42.02;95226.38;4988603;28;20037;-75
2022/09/24 09:21:36;;;;;;;;;;;;;;;14.70;41.51;95227.72;4987817;28;19922;-76
2022/09/24 09:24:01;;;;;;;;;;;;;;;14.82;41.36;95222.31;4982144;28;19976;-76
2022/09/24 09:26:26;;;;;;;;;;;;;;;14.90;41.14;95223.25;4990136;28;19921;-76
2022/09/24 09:28:52;;;;;;;;;;;;;;;14.90;40.98;95215.41;4988091;28;19917;-76
2022/09/24 09:31:21;;;;;;;;;;;;;;;15.00;39.44;95217.19;4972444;28;19948;-75
2022/09/24 09:34:05;;;;;;;;;;;;;;;15.07;40.12;95213.00;4983350;28;19918;-73
2022/09/24 09:36:56;;;;;;;;;;;;;;;14.98;39.79;95212.91;4990290;28;19921;-74
2022/09/24 09:39:28;;;;;;;;;;;;;;;15.00;40.31;95206.72;4973336;28;19924;-76
2022/09/24 09:42:13;;;;;;;;;;;;;;;15.11;40.01;95196.88;4980201;28;20281;-76
2022/09/24 09:44:41;;;;;;;;;;;;;;;15.42;37.36;95197.38;4988287;28;19914;-74
2022/09/24 09:47:22;;;;;;;;;;;;;;;15.38;37.19;95195.22;4988810;28;19945;-73
2022/09/24 09:49:47;;;;;;;;;;;;;;;15.37;38.89;95185.72;5003284;28;19914;-73
2022/09/24 09:52:21;;;;;;;11.43;5.07;;;;;;;15.55;37.59;95191.00;4977829;28;20378;-73
2022/09/24 09:54:47;;;;;;;15.60;10.70;;;;;;;15.54;38.10;95192.75;4968378;28;20026;-73
2022/09/24 09:57:17;;;;;;;13.15;10.18;;;;;;;15.46;38.38;95182.22;4970947;28;20038;-71
2022/09/24 09:59:48;;;;;;;18.55;14.70;;;;;;;15.49;38.39;95168.00;4987925;28;20053;-72
2022/09/24 10:02:27;;;;;;;13.63;9.53;;;;;;;15.61;37.95;95175.50;4966182;28;20081;-72
2022/09/24 10:05:00;;;;;;;15.52;8.25;;;;;;;15.91;36.83;95160.41;4971465;28;20480;-71
2022/09/24 10:07:26;;;;;;;9.30;6.47;;;;;;;15.97;37.70;95162.41;4971143;28;20420;-71
2022/09/24 10:10:11;;;;;;;10.20;8.57;;;;;;;15.99;37.12;95154.41;4968643;28;20030;-71
2022/09/24 10:12:36;;;;;;;27.45;20.65;;;;;;;16.04;35.81;95139.84;4965546;28;20192;-73
2022/09/24 10:15:17;;;;;;;3.33;2.90;;;;;;;16.36;35.15;95159.44;4979580;28;20031;-72
2022/09/24 10:17:43;;;;;;;;;;;;;;;16.31;36.04;95161.69;4982122;28;19928;-73
2022/09/24 10:20:19;;;;;;;;;;;;;;;16.16;35.73;95152.72;4985114;28;19973;-73
2022/09/24 10:22:46;;;;;;;;;;;;;;;16.17;35.38;95155.19;4981071;28;19917;-73
2022/09/24 10:25:23;;;;;;;;;;;;;;;16.22;35.66;95154.75;4984359;28;19918;-73
2022/09/24 10:27:48;;;;;;;;;;;;;;;16.23;35.41;95148.53;4984555;28;19921;-73
2022/09/24 10:30:32;;;;;;;;;;;;;;;16.37;36.18;95147.94;4985879;28;20445;-73
2022/09/24 10:32:59;;;;;;;;;;;;;;;16.49;35.69;95132.78;4997214;28;19968;-73
2022/09/24 10:35:27;;;;;;;;;;;;;;;16.69;34.53;95136.03;4987091;28;20379;-73
2022/09/24 10:37:53;;;;;;;;;;;;;;;16.72;34.62;95133.09;4986993;28;19921;-73
2022/09/24 10:40:22;;;;;;;;;;;;;;;16.85;33.01;95136.09;4983763;28;19926;-73
2022/09/24 10:42:53;;;;;;;;;;;;;;;16.73;33.57;95118.97;4989263;28;20311;-73
2022/09/24 10:45:19;;;;;;;;;;;;;;;16.85;34.50;95133.47;4978476;28;19925;-73
2022/09/24 10:47:51;;;;;;;;;;;;;;;16.86;33.96;95129.88;4963646;28;20451;-73
2022/09/24 10:50:23;;;;;;;;;;;;;;;16.99;34.36;95126.81;4976487;28;20387;-73
2022/09/24 10:52:59;;;;;;;;;;;;;;;17.12;32.99;95123.75;4981039;28;20319;-73
2022/09/24 10:55:27;;;;;;;;;;;;;;;17.18;32.73;95128.34;4978018;28;19972;-73
2022/09/24 10:57:53;;;;;;;;;;;;;;;17.17;32.88;95127.53;4986127;28;19926;-73
2022/09/24 11:00:19;;;;;;;;;;;;;;;17.16;32.53;95117.19;4976608;28;20435;-73
2022/09/24 11:02:50;;;;;;;;;;;;;;;17.20;32.46;95124.59;4957429;28;19918;-73
2022/09/24 11:05:21;;;;;;;;;;;;;;;17.32;31.71;95117.22;4985939;28;19918;-73
2022/09/24 11:07:47;;;;;;;;;;;;;;;17.44;32.36;95117.75;4988533;28;20549;-73
2022/09/24 11:10:12;;;;;;;;;;;;;;;17.49;32.34;95119.88;4990883;28;19913;-73
2022/09/24 11:12:56;;;;;;;;;;;;;;;17.41;32.69;95124.16;4989275;28;19921;-73
2022/09/24 11:15:29;;;;;;;;;;;;;;;17.56;30.99;95120.88;4986085;28;19918;-73
2022/09/24 11:17:57;;;;;;;;;;;;;;;17.60;32.12;95119.56;4989229;28;20311;-73
2022/09/24 11:20:30;;;;;;;;;;;;;;;17.59;32.64;95120.56;4980683;28;19929;-73
2022/09/24 11:22:59;;;;;;;;;;;;;;;17.67;31.57;95115.31;4986405;28;19968;-73
2022/09/24 11:25:35;;;;;;;;;;;;;;;17.76;31.88;95111.69;4990479;28;19922;-73
2022/09/24 11:28:00;;;;;;;;;;;;;;;17.75;31.67;95107.44;4990465;28;20413;-73
2022/09/24 11:30:49;;;;;;;;;;;;;;;17.62;32.04;95101.84;4975676;28;20016;-73
2022/09/24 11:33:33;;;;;;;;;;;;;;;17.85;30.45;95094.97;4961288;28;20010;-73
2022/09/24 11:36:14;;;;;;;;;;;;;;;18.00;29.79;95087.25;4974592;28;19967;-73
2022/09/24 11:38:44;;;;;;;;;;;;;;;17.96;30.64;95088.56;4976497;28;19926;-73
2022/09/24 11:41:28;;;;;;;;;;;;;;;17.97;30.61;95092.00;4997856;28;19945;-73
2022/09/24 11:44:12;;;;;;;;;;;;;;;18.00;30.35;95091.69;4972442;28;20000;-73
2022/09/24 11:46:55;;;;;;;;;;;;;;;18.14;28.80;95090.22;4990553;28;20538;-73
2022/09/24 11:49:20;;;;;;;;;;;;;;;18.11;29.63;95083.47;4989816;28;19918;-73
2022/09/24 11:52:04;;;;;;;;;;;;;;;18.09;30.71;95083.63;4970861;28;19972;-73
2022/09/24 11:54:29;;;;;;;;;;;;;;;18.11;30.34;95080.00;4972462;28;19918;-73
2022/09/24 11:56:57;;;;;;;;;;;;;;;18.20;29.32;95071.94;4971992;28;20367;-73
2022/09/24 11:59:31;;;;;;;;;;;;;;;18.41;28.00;95075.81;4973906;28;19968;-73
2022/09/24 12:02:03;;;;;;;;;;;;;;;18.36;27.63;95076.34;4970523;28;20292;-73
2022/09/24 12:04:32;;;;;;;;;;;;;;;18.35;27.37;95064.19;4972060;28;19914;-73
2022/09/24 12:07:11;;;;;;;;;;;;;;;18.30;27.63;95063.84;4954834;28;20355;-73
2022/09/24 12:09:50;;;;;;;;;;;;;;;18.27;28.79;95059.75;4985723;28;19945;-73
2022/09/24 12:12:42;;;;;;;;;;;;;;;18.15;28.51;95053.22;4973235;28;19965;-73
2022/09/24 12:15:23;;;;;;;;;;;;;;;18.25;28.86;95053.88;4969437;28;19918;-73
2022/09/24 12:17:50;;;;;;;;;;;;;;;18.39;28.56;95062.06;4990624;28;19993;-73
2022/09/24 12:20:39;;;;;;;;;;;;;;;18.64;26.44;95053.09;4989785;28;19918;-73
2022/09/24 12:23:07;;;;;;;;;;;;;;;18.52;27.29;95054.44;4972444;28;19969;-73
2022/09/24 12:25:38;;;;;;;;;;;;;;;18.40;28.02;95055.78;4957851;28;19922;-73
2022/09/24 12:28:03;;;;;;;;;;;;;;;18.48;27.84;95058.41;4976833;28;20024;-73
2022/09/24 12:33:40;;;;;;;;;;;;;;;18.63;27.05;95056.69;4985618;28;19928;-72
2022/09/24 12:36:14;;;;;;;;;;;;;;;18.75;27.76;95051.91;4972394;28;20419;-72
2022/09/24 12:39:05;;;;;;;;;;;;;;;18.85;26.51;95049.06;4987500;28;20569;-72
2022/09/24 12:41:30;;;;;;;;;;;;;;;18.85;27.40;95052.50;4982519;28;19925;-74
2022/09/24 12:43:56;;;;;;;;;;;;;;;18.94;27.76;95055.91;4988167;28;19918;-74
2022/09/24 12:46:27;;;;;;;;;;;;;;;18.97;27.66;95060.84;4983381;28;19930;-72
2022/09/24 12:48:52;;;;;;;;;;;;;;;18.97;26.55;95059.03;4986012;28;19928;-71
2022/09/24 12:51:21;;;;;;;;;;;;;;;19.02;26.64;95049.78;4987022;28;19922;-72
2022/09/24 12:54:19;;;;;;;;;;;;;;;19.08;26.76;95043.81;4991811;28;20407;-72
2022/09/24 12:56:44;;;;;;;;;;;;;;;19.26;25.28;95044.38;4968712;28;19987;-72
2022/09/24 12:59:25;;;;;;;;;;;;;;;19.20;25.86;95038.00;4970673;28;19965;-75
2022/09/24 13:01:51;;;;;;;;;;;;;;;19.23;25.89;95033.38;4983301;28;19925;-74
2022/09/24 13:04:16;;;;;;;;;;;;;;;19.18;26.00;95024.19;4973416;28;19914;-74
2022/09/24 13:06:42;;;;;;;;;;;;;;;19.19;26.46;95025.00;4983606;28;19992;-75
2022/09/24 13:09:40;;;;;;;;;;;;;;;19.23;26.66;95028.13;4965658;28;19969;-74
2022/09/24 13:12:18;;;;;;;;;;;;;;;19.29;27.06;95024.78;4973548;28;20064;-74